Terminal Aerodrome Forecast
Issued by NWS

Home | Current Version | Previous Version | Text Only | Print | Product List | Glossary On
Versions: 1 2 3 4 5 6 7 8 9 10 11 12 13 14 15 16 17 18 19 20 21 22 23 24 25 26 27 28 29 30 31 32 33 34 35 36 37 38 39 40 41 42 43 44 45 46 47 48 49 50
000
FTUS45 KBOU 250522
TAFBJC
TAF
KBJC 250522Z 2506/2606 27005KT P6SM FEW060 BKN120
     FM250900 25005KT P6SM FEW070 SCT120
     FM252000 27014G22KT P6SM SCT090 SCT150
     FM260200 25008KT P6SM SCT080 BKN150=

USA.gov is the U.S. government's official web portal to all federal, state and local government web resources and services.